D/T METAR WX W/SPE G/SPE TEMP DEWP FEEL
25/05/22 00:50 EGGW 242350Z AUTO 26010KT 9999 NCD 10/07 Q1011 11.5mph 10°C 7°C 10.0°C
25/05/22 00:20 EGGW 242320Z AUTO 26010KT 9999 NCD 09/07 Q1011 11.5mph 9°C 7°C 9.0°C
24/05/22 23:50 EGGW 242250Z AUTO 25007KT 9999 NCD 09/07 Q1011 8.1mph 9°C 7°C 9.0°C
24/05/22 23:20 EGGW 242220Z AUTO 24007KT 9999 NCD 09/07 Q1011 8.1mph 9°C 7°C 9.0°C
24/05/22 22:50 EGGW 242150Z AUTO 24007KT 9999 NCD 10/07 Q1011 8.1mph 10°C 7°C 10.0°C
24/05/22 22:20 EGGW 242120Z AUTO 24008KT 9999 NCD 10/07 Q1010 9.2mph 10°C 7°C 10.0°C
24/05/22 21:50 EGGW 242050Z AUTO 25007KT 9999 NCD 10/06 Q1010 8.1mph 10°C 6°C 9.6°C
24/05/22 21:20 EGGW 242020Z AUTO 25008KT 9999 FEW042 11/07 Q1010 9.2mph 11°C 7°C 11.0°C
24/05/22 20:50 EGGW 241950Z AUTO 23007KT 190V270 9999 BKN037/// //////CB 13/08 Q1009 8.1mph 13°C 8°C 13.4°C
24/05/22 20:20 EGGW 241920Z AUTO VRB01KT 9999 FEW049 14/08 Q1009 1.2mph 14°C 8°C 14.4°C
24/05/22 19:20 EGGW 241820Z AUTO 35003KT 290V080 9999 NCD 14/07 Q1008 3.5mph 14°C 7°C 14.0°C
24/05/22 18:50 EGGW 241750Z AUTO 33009KT 290V350 9999 NCD 13/06 Q1008 10.4mph 13°C 6°C 12.6°C
24/05/22 18:20 EGGW 241720Z AUTO 29008KT 250V310 9999 NCD 14/06 Q1008 9.2mph 14°C 6°C 13.6°C
24/05/22 17:50 EGGW 241650Z AUTO 28009KT 9999 //////TCU 15/07 Q1008 10.4mph 15°C 7°C 15.0°C
24/05/22 17:20 EGGW 241620Z AUTO 27017KT 9999 -RA FEW024/// //////TCU 13/07 Q1008 -RA 19.6mph 13°C 7°C 13.0°C
24/05/22 16:50 EGGW 241550Z AUTO 30011KT 260V330 9999 SCT044/// //////CB 17/05 Q1007 12.7mph 17°C 5°C 16.3°C
24/05/22 16:20 EGGW 241520Z AUTO 30013KT 280V340 9999 SCT041/// SCT048/// //////CB 16/06 Q1007 15.0mph 16°C 6°C 15.6°C
24/05/22 15:50 EGGW 241450Z AUTO 28012KT 250V310 9999 BKN040/// //////CB 16/07 Q1007 13.8mph 16°C 7°C 16.0°C
24/05/22 15:20 EGGW 241420Z AUTO 26015KT 9999 SCT039 17/08 Q1007 17.3mph 17°C 8°C 17.4°C
24/05/22 14:50 EGGW 241350Z AUTO 26015KT 9999 FEW037 16/09 Q1007 17.3mph 16°C 9°C 16.8°C
24/05/22 14:20 EGGW 241320Z AUTO 26011KT 9999 //////CB 15/10 Q1006 12.7mph 15°C 10°C 16.3°C
24/05/22 13:50 EGGW 241250Z AUTO 25013KT 9999 -RA SCT048/// //////CB 11/08 Q1007 -RA 15.0mph 11°C 8°C 11.4°C
24/05/22 12:50 EGGW 241150Z AUTO 25007KT 9999 -RA VCTS FEW028/// //////CB 11/09 Q1006 RESHRA -RA VCTS 8.1mph 11°C 9°C 11.8°C
24/05/22 12:20 EGGW 241120Z AUTO 26013KT 9999 SCT029/// BKN036/// //////CB 16/08 Q1005 15.0mph 16°C 8°C 16.4°C
24/05/22 11:50 EGGW 241050Z AUTO 25013KT 9999 SCT027/// BKN038/// //////CB 15/09 Q1005 15.0mph 15°C 9°C 15.8°C
24/05/22 11:20 EGGW 241020Z AUTO 24012KT 9999 FEW023 SCT049 15/09 Q1005 13.8mph 15°C 9°C 15.8°C
24/05/22 10:50 EGGW 240950Z AUTO 28010KT 240V310 9999 SCT023 BKN029 13/08 Q1005 11.5mph 13°C 8°C 13.4°C
24/05/22 10:20 EGGW 240920Z AUTO 29011KT 9999 SCT019 SCT027 BKN049 13/09 Q1005 12.7mph 13°C 9°C 13.8°C
24/05/22 09:50 EGGW 240850Z AUTO 27011KT 9999 BKN017 BKN043 13/10 Q1005 12.7mph 13°C 10°C 14.3°C
24/05/22 09:20 EGGW 240820Z AUTO 27011KT 9999 BKN012 11/09 Q1004 12.7mph 11°C 9°C 11.8°C
24/05/22 08:50 EGGW 240750Z 27011KT 9999 -RA BKN010 11/09 Q1004 -RA 12.7mph 11°C 9°C 11.8°C
24/05/22 08:20 EGGW 240720Z AUTO 28010KT 9999 BKN009 11/09 Q1004 11.5mph 11°C 9°C 11.8°C
24/05/22 07:50 EGGW 240650Z AUTO 28009KT 9999 -RA BKN008 OVC038 10/09 Q1003 -RA 10.4mph 10°C 9°C 10.8°C
24/05/22 07:20 EGGW 240620Z AUTO 28010KT 9999 OVC007 10/09 Q1003 11.5mph 10°C 9°C 10.8°C
24/05/22 06:50 EGGW 240550Z AUTO 27010KT 9999 -RA OVC007/// //////TCU 10/09 Q1003 -RA 11.5mph 10°C 9°C 10.8°C
24/05/22 06:20 EGGW 240520Z AUTO 28010KT 9999 -RA OVC007/// //////TCU 10/09 Q1002 -RA 11.5mph 10°C 9°C 10.8°C
24/05/22 05:50 EGGW 240450Z AUTO 27011KT 9999 -RA BKN006/// OVC040/// //////TCU 09/09 Q1002 -RA 12.7mph 9°C 9°C 9.8°C
24/05/22 05:20 EGGW 240420Z AUTO 26010KT 9999 -RA OVC005/// //////TCU 09/09 Q1002 -RA 11.5mph 9°C 9°C 9.8°C
24/05/22 04:50 EGGW 240350Z AUTO 25011KT 9999 -RA BKN006 OVC048 09/08 Q1001 -RA 12.7mph 9°C 8°C 9.4°C
24/05/22 04:20 EGGW 240320Z AUTO 25009KT 9999 -RA BKN019 BKN026 09/08 Q1001 -RA 10.4mph 9°C 8°C 9.4°C
24/05/22 03:50 EGGW 240250Z AUTO 24008KT 9999 SCT023 BKN028 BKN048 09/08 Q1001 9.2mph 9°C 8°C 9.4°C
24/05/22 03:20 EGGW 240220Z AUTO 26009KT 9999 -RA NCD 09/08 Q1001 -RA 10.4mph 9°C 8°C 9.4°C
24/05/22 02:50 EGGW 240150Z AUTO 27012KT 9999 -RA NCD 09/08 Q1001 -RA 13.8mph 9°C 8°C 9.4°C
24/05/22 02:20 EGGW 240120Z AUTO 27010KT 9999 -RA NCD 09/08 Q1001 -RA 11.5mph 9°C 8°C 9.4°C
24/05/22 01:50 EGGW 240050Z AUTO 28011KT 9999 -RA SCT025 BKN037 09/08 Q1001 -RA 12.7mph 9°C 8°C 9.4°C
24/05/22 01:20 EGGW 240020Z AUTO 28011KT 9999 -RA FEW032 SCT041 09/08 Q1001 -RA 12.7mph 9°C 8°C 9.4°C
24/05/22 00:50 EGGW 232350Z AUTO 28011KT 9999 -RA SCT009/// BKN016/// BKN028/// //////TCU 10/09 Q1001 -RA 12.7mph 10°C 9°C 10.8°C
24/05/22 00:20 EGGW 232320Z AUTO 27011KT 9999 -RA FEW011/// SCT029/// BKN036/// //////CB 10/09 Q1001 -RA 12.7mph 10°C 9°C 10.8°C
23/05/22 23:50 EGGW 232250Z AUTO 28010KT 9999 -RA SCT011/// BKN032/// BKN039/// //////TCU 11/08 Q1001 -RA 11.5mph 11°C 8°C 11.4°C
23/05/22 23:20 EGGW 232220Z AUTO 28011KT 9999 SCT027 11/08 Q1001 12.7mph 11°C 8°C 11.4°C
23/05/22 22:50 EGGW 232150Z AUTO 27010KT 9999 NCD 11/08 Q1001 11.5mph 11°C 8°C 11.4°C
23/05/22 22:20 EGGW 232120Z AUTO 27009KT 9999 BKN049 11/08 Q1001 10.4mph 11°C 8°C 11.4°C
23/05/22 21:50 EGGW 232050Z AUTO 27010KT 9999 BKN045 12/08 Q1001 11.5mph 12°C 8°C 12.4°C
23/05/22 21:20 EGGW 232020Z AUTO 29010KT 9999 NCD 12/08 Q1000 11.5mph 12°C 8°C 12.4°C
23/05/22 20:50 EGGW 231950Z AUTO 28011KT 9999 BKN047 13/08 Q1000 12.7mph 13°C 8°C 13.4°C
23/05/22 20:20 EGGW 231920Z AUTO 28013KT 9999 BKN049 13/09 Q1000 15.0mph 13°C 9°C 13.8°C
23/05/22 19:50 EGGW 231850Z AUTO 25008KT 9999 FEW044 13/08 Q1000 9.2mph 13°C 8°C 13.4°C
23/05/22 19:20 EGGW 231820Z AUTO 26011KT 9999 FEW036/// BKN047/// //////TCU 14/09 Q1000 12.7mph 14°C 9°C 14.8°C
23/05/22 18:50 EGGW 231750Z AUTO 29010KT 9999 -RA //////CB 14/09 Q1000 -RA 11.5mph 14°C 9°C 14.8°C
23/05/22 18:20 EGGW 231720Z AUTO 28014KT 9999 NCD 15/09 Q1000 16.1mph 15°C 9°C 15.8°C
23/05/22 17:50 EGGW 231650Z AUTO 27011KT 240V300 9999 SCT044 17/07 Q0999 12.7mph 17°C 7°C 17.0°C
23/05/22 16:50 EGGW 231550Z AUTO 25008KT 9999 NCD 18/07 Q1000 9.2mph 18°C 7°C 18.0°C
23/05/22 16:20 EGGW 231520Z AUTO 28010KT 9999 FEW043 17/07 Q1000 11.5mph 17°C 7°C 17.0°C
23/05/22 15:50 EGGW 231450Z AUTO 27011KT 240V300 9999 FEW045 19/07 Q1000 12.7mph 19°C 7°C 19.0°C
23/05/22 15:20 EGGW 231420Z AUTO 30010KT 270V340 9999 SCT036 BKN047 17/07 Q1001 11.5mph 17°C 7°C 17.0°C
23/05/22 14:50 EGGW 231350Z AUTO 29011KT 9999 SCT031 BKN039 16/09 Q1001 12.7mph 16°C 9°C 16.8°C
23/05/22 14:20 EGGW 231320Z AUTO 28012KT 9999 SCT031 BKN041 17/09 Q1001 13.8mph 17°C 9°C 17.8°C
23/05/22 13:20 EGGW 231220Z AUTO 24007KT 9999 SCT028 BKN034 17/10 Q1001 8.1mph 17°C 10°C 18.3°C
23/05/22 12:50 EGGW 231150Z AUTO 26007KT 9999 BKN028 OVC039 16/09 Q1001 8.1mph 16°C 9°C 16.8°C
23/05/22 11:50 EGGW 231050Z AUTO 30005KT 260V340 9999 BKN027 OVC038 16/10 Q1001 5.8mph 16°C 10°C 17.3°C
23/05/22 11:20 EGGW 231020Z AUTO 32008KT 270V010 9999 SCT025 BKN037 OVC043 16/10 Q1002 9.2mph 16°C 10°C 17.3°C
23/05/22 10:50 EGGW 230950Z AUTO 30008KT 270V330 9999 BKN023 BKN044 16/10 Q1002 9.2mph 16°C 10°C 17.3°C
23/05/22 10:20 EGGW 230920Z AUTO 30008KT 270V340 9999 SCT024 16/10 Q1002 9.2mph 16°C 10°C 17.3°C
23/05/22 09:50 EGGW 230850Z AUTO 32009KT 280V350 9999 SCT015 15/11 Q1002 10.4mph 15°C 11°C 16.8°C
23/05/22 09:20 EGGW 230820Z AUTO 32009KT 290V360 9999 BKN031 15/11 Q1003 10.4mph 15°C 11°C 16.8°C
23/05/22 08:50 EGGW 230750Z AUTO 31009KT 9999 SCT032 BKN038 15/11 Q1003 10.4mph 15°C 11°C 16.8°C
23/05/22 08:20 EGGW 230720Z AUTO 30010KT 9999 SCT038 15/11 Q1003 11.5mph 15°C 11°C 16.8°C
23/05/22 07:50 EGGW 230650Z AUTO 31007KT 9999 SCT034 14/11 Q1003 8.1mph 14°C 11°C 15.8°C
23/05/22 07:20 EGGW 230620Z AUTO 29007KT 9999 NCD 14/11 Q1004 8.1mph 14°C 11°C 15.8°C
23/05/22 06:50 EGGW 230550Z AUTO 26009KT 9999 NCD 12/11 Q1004 10.4mph 12°C 11°C 13.8°C
23/05/22 06:20 EGGW 230520Z AUTO 27008KT 9999 NCD 12/10 Q1004 9.2mph 12°C 10°C 13.3°C
23/05/22 05:50 EGGW 230450Z AUTO 27008KT 9999 NCD 10/09 Q1004 9.2mph 10°C 9°C 10.8°C
23/05/22 05:20 EGGW 230420Z AUTO 24005KT 9999 NCD 09/08 Q1004 5.8mph 9°C 8°C 9.4°C
23/05/22 04:50 EGGW 230350Z AUTO 23004KT 9999 NCD 09/08 Q1004 4.6mph 9°C 8°C 9.4°C
23/05/22 03:50 EGGW 230250Z AUTO 22004KT 9999 NCD 09/08 Q1005 4.6mph 9°C 8°C 9.4°C
23/05/22 03:20 EGGW 230220Z AUTO 21005KT 9999 NCD 10/08 Q1005 5.8mph 10°C 8°C 10.4°C
23/05/22 02:50 EGGW 230150Z AUTO 22005KT 9999 NCD 10/08 Q1006 5.8mph 10°C 8°C 10.4°C
23/05/22 01:50 EGGW 230050Z AUTO 19003KT 9999 NCD 11/08 Q1006 3.5mph 11°C 8°C 11.4°C
23/05/22 01:20 EGGW 230020Z AUTO 20005KT 9999 NCD 12/08 Q1007 5.8mph 12°C 8°C 12.4°C
23/05/22 00:50 EGGW 222350Z AUTO 20006KT 9999 NCD 13/09 Q1007 6.9mph 13°C 9°C 13.8°C
23/05/22 00:20 EGGW 222320Z AUTO 20006KT 9999 NCD 13/09 Q1007 6.9mph 13°C 9°C 13.8°C
22/05/22 23:50 EGGW 222250Z AUTO 22006KT 9999 NCD 13/09 Q1007 6.9mph 13°C 9°C 13.8°C
22/05/22 23:20 EGGW 222220Z AUTO 21006KT 9999 NCD 14/09 Q1007 6.9mph 14°C 9°C 14.8°C
22/05/22 22:50 EGGW 222150Z AUTO 22006KT 9999 NCD 14/09 Q1008 6.9mph 14°C 9°C 14.8°C
22/05/22 22:20 EGGW 222120Z AUTO 21005KT 9999 NCD 15/09 Q1008 5.8mph 15°C 9°C 15.8°C
22/05/22 21:50 EGGW 222050Z AUTO 20005KT 9999 NCD 15/09 Q1008 5.8mph 15°C 9°C 15.8°C